createdAt,value
2019-04-25T00:01:31.881Z,1.70
2019-04-25T00:04:04.783Z,2.12
2019-04-25T00:06:37.227Z,1.60
2019-04-25T00:09:13.325Z,2.20
2019-04-25T00:11:47.800Z,2.20
2019-04-25T00:14:20.056Z,2.30
2019-04-25T00:16:53.440Z,2.33
2019-04-25T00:19:25.525Z,2.15
2019-04-25T00:22:05.793Z,2.83
2019-04-25T00:24:49.555Z,2.22
2019-04-25T00:27:21.684Z,2.00
2019-04-25T00:29:57.310Z,2.47
2019-04-25T00:32:29.431Z,1.90
2019-04-25T00:35:01.865Z,2.00
2019-04-25T00:37:35.119Z,1.95
2019-04-25T00:40:08.385Z,2.10
2019-04-25T00:42:42.773Z,1.85
2019-04-25T00:45:14.417Z,2.10
2019-04-25T00:47:46.546Z,2.17
2019-04-25T00:50:18.672Z,2.25
2019-04-25T00:52:52.178Z,1.92
2019-04-25T00:55:28.540Z,2.00
2019-04-25T00:58:05.243Z,2.55
2019-04-25T01:00:46.992Z,2.10
2019-04-25T01:03:24.252Z,1.80
2019-04-25T01:05:56.254Z,2.15
2019-04-25T01:08:28.450Z,1.87
2019-04-25T01:11:01.650Z,2.17
2019-04-25T01:13:35.012Z,1.95
2019-04-25T01:16:07.203Z,2.05
2019-04-25T01:18:39.294Z,2.20
2019-04-25T01:21:11.351Z,2.20
2019-04-25T01:23:43.750Z,2.10
2019-04-25T01:26:15.721Z,2.87
2019-04-25T01:28:47.720Z,2.60
2019-04-25T01:31:21.592Z,2.65
2019-04-25T01:33:54.645Z,2.55
2019-04-25T01:36:44.973Z,2.52
2019-04-25T01:39:31.186Z,2.58
2019-04-25T01:42:23.603Z,2.45
2019-04-25T01:44:56.893Z,2.40
2019-04-25T01:47:29.585Z,2.80
2019-04-25T01:50:01.602Z,2.70
2019-04-25T01:52:36.060Z,2.83
2019-04-25T01:55:08.422Z,2.77
2019-04-25T01:57:40.394Z,2.90
2019-04-25T02:00:14.135Z,2.92
2019-04-25T02:02:46.539Z,2.80
2019-04-25T02:05:18.668Z,2.70
2019-04-25T02:07:51.537Z,2.95
2019-04-25T02:10:23.822Z,2.80
2019-04-25T02:12:59.889Z,3.20
2019-04-25T02:15:33.585Z,3.10
2019-04-25T02:18:05.700Z,3.35
2019-04-25T02:20:37.811Z,2.35
2019-04-25T02:23:10.812Z,2.85
2019-04-25T02:25:44.296Z,2.12
2019-04-25T02:28:16.456Z,2.67
2019-04-25T02:33:57.049Z,2.58
2019-04-25T02:36:27.652Z,3.15
2019-04-25T02:39:01.664Z,2.30
2019-04-25T02:41:35.176Z,2.15
2019-04-25T02:44:10.178Z,2.87
2019-04-25T02:47:02.197Z,2.22
2019-04-25T02:49:51.725Z,2.80
2019-04-25T02:52:45.642Z,2.10
2019-04-25T02:55:30.866Z,2.30
2019-04-25T02:57:51.565Z,2.00
2019-04-25T03:00:45.953Z,2.45
2019-04-25T03:03:05.652Z,2.25
2019-04-25T03:05:36.703Z,2.33
2019-04-25T03:08:10.523Z,2.55
2019-04-25T03:10:44.334Z,2.17
2019-04-25T03:13:16.450Z,2.10
2019-04-25T03:15:48.521Z,2.10
2019-04-25T03:18:24.644Z,1.98
2019-04-25T03:21:13.407Z,1.85
2019-04-25T03:23:46.076Z,2.27
2019-04-25T03:26:16.741Z,3.05
2019-04-25T03:28:49.062Z,2.30
2019-04-25T03:31:24.048Z,2.20
2019-04-25T03:33:55.920Z,2.30
2019-04-25T03:36:28.136Z,1.90
2019-04-25T03:39:00.901Z,2.42
2019-04-25T03:41:34.172Z,1.75
2019-04-25T03:44:06.496Z,2.25
2019-04-25T03:46:38.454Z,2.00
2019-04-25T03:49:10.352Z,2.22
2019-04-25T03:51:43.753Z,1.87
2019-04-25T03:54:16.051Z,2.47
2019-04-25T03:56:53.645Z,1.98
2019-04-25T03:59:23.656Z,2.37
2019-04-25T04:01:55.671Z,1.90
2019-04-25T04:04:27.555Z,2.22
2019-04-25T04:06:59.876Z,1.80
2019-04-25T04:09:33.686Z,2.40
2019-04-25T04:12:06.381Z,2.77
2019-04-25T04:14:38.641Z,3.12
2019-04-25T04:17:16.213Z,2.72
2019-04-25T04:20:15.156Z,3.77
2019-04-25T04:22:56.058Z,2.90
2019-04-25T04:25:28.353Z,3.02
2019-04-25T04:28:00.318Z,3.20
2019-04-25T04:30:33.858Z,3.50
2019-04-25T04:33:06.937Z,3.30
2019-04-25T04:35:38.894Z,3.83
2019-04-25T04:38:11.640Z,3.80
2019-04-25T04:40:44.260Z,3.42
2019-04-25T04:43:17.974Z,3.30
2019-04-25T04:45:52.064Z,3.00
2019-04-25T04:48:24.114Z,3.37
2019-04-25T04:50:56.088Z,3.42
2019-04-25T04:53:28.232Z,3.08
2019-04-25T04:56:00.269Z,3.90
2019-04-25T04:58:34.208Z,3.90
2019-04-25T05:01:06.352Z,3.70
2019-04-25T05:03:57.250Z,3.45
2019-04-25T05:06:54.106Z,4.28
2019-04-25T05:09:27.766Z,4.00
2019-04-25T05:11:59.674Z,4.10
2019-04-25T05:14:31.610Z,3.60
2019-04-25T05:17:04.364Z,3.60
2019-04-25T05:19:36.725Z,3.35
2019-04-25T05:22:08.741Z,3.22
2019-04-25T05:24:40.792Z,3.00
2019-04-25T05:27:15.389Z,2.35
2019-04-25T05:29:46.903Z,2.50
2019-04-25T05:32:19.958Z,2.20
2019-04-25T05:34:53.270Z,1.95
2019-04-25T05:37:26.484Z,2.42
2019-04-25T05:39:58.611Z,2.17
2019-04-25T05:42:48.041Z,1.95
2019-04-25T05:45:23.841Z,2.12
2019-04-25T05:47:57.244Z,1.80
2019-04-25T05:50:29.535Z,1.95
2019-04-25T05:53:01.537Z,1.35
2019-04-25T05:55:34.174Z,1.85
2019-04-25T05:58:06.396Z,1.90
2019-04-25T06:00:38.453Z,1.60
2019-04-25T06:03:11.461Z,2.05
2019-04-25T06:05:43.525Z,1.80
2019-04-25T06:08:19.392Z,2.05
2019-04-25T06:11:06.862Z,2.37
2019-04-25T06:13:56.273Z,1.90
2019-04-25T06:16:33.364Z,1.80
2019-04-25T06:19:25.013Z,1.80
2019-04-25T06:21:57.843Z,1.57
2019-04-25T06:24:47.087Z,1.90
2019-04-25T06:27:28.399Z,1.95
2019-04-25T06:30:07.855Z,1.98
2019-04-25T06:32:40.520Z,2.55
2019-04-25T06:35:14.334Z,1.60
2019-04-25T06:37:46.460Z,2.00
2019-04-25T06:40:19.695Z,3.20
2019-04-25T06:42:55.185Z,2.58
2019-04-25T06:46:05.212Z,1.90
2019-04-25T06:48:45.527Z,1.75
2019-04-25T06:51:17.999Z,1.70
2019-04-25T06:53:50.027Z,2.05
2019-04-25T06:56:24.051Z,1.80
2019-04-25T06:58:56.506Z,2.33
2019-04-25T07:01:28.962Z,2.37
2019-04-25T07:04:01.523Z,2.27
2019-04-25T07:06:34.716Z,2.22
2019-04-25T07:09:09.543Z,2.33
2019-04-25T07:11:41.594Z,2.42
2019-04-25T07:14:14.214Z,2.40
2019-04-25T07:16:47.374Z,2.15
2019-04-25T07:19:19.473Z,2.05
2019-04-25T07:21:51.507Z,2.30
2019-04-25T07:24:24.844Z,2.40
2019-04-25T07:27:14.699Z,2.30
2019-04-25T07:30:04.047Z,2.15
2019-04-25T07:32:54.168Z,2.10
2019-04-25T07:35:26.750Z,2.30
2019-04-25T07:37:58.858Z,2.17
2019-04-25T07:40:31.756Z,2.45
2019-04-25T07:43:04.888Z,1.80
2019-04-25T07:45:38.289Z,2.00
2019-04-25T07:48:10.186Z,2.00
2019-04-25T07:50:43.779Z,1.80
2019-04-25T07:53:16.328Z,2.15
2019-04-25T07:55:49.023Z,1.80
2019-04-25T07:58:21.066Z,1.60
2019-04-25T08:00:53.964Z,1.30
2019-04-25T08:03:26.139Z,1.40
2019-04-25T08:05:59.839Z,1.35
2019-04-25T08:08:32.198Z,2.10
2019-04-25T08:11:08.257Z,1.30
2019-04-25T08:13:55.403Z,1.10
2019-04-25T08:16:30.152Z,1.22
2019-04-25T08:19:04.210Z,1.40
2019-04-25T08:21:36.679Z,1.30
2019-04-25T08:24:08.825Z,1.60
2019-04-25T08:26:41.763Z,1.30
2019-04-25T08:29:14.294Z,2.02
2019-04-25T08:31:46.359Z,1.57
2019-04-25T08:34:18.391Z,1.40
2019-04-25T08:36:50.543Z,1.10
2019-04-25T08:39:24.086Z,1.10
2019-04-25T08:41:56.212Z,1.30
2019-04-25T08:44:28.120Z,1.47
2019-04-25T08:47:00.375Z,1.52
2019-04-25T08:49:42.923Z,1.42
2019-04-25T08:52:14.944Z,1.60
2019-04-25T08:54:57.651Z,2.08
2019-04-25T08:57:54.611Z,1.30
2019-04-25T09:01:01.419Z,1.50
2019-04-25T09:03:40.144Z,1.30
2019-04-25T09:06:13.760Z,1.30
2019-04-25T09:08:46.627Z,1.25
2019-04-25T09:11:19.025Z,1.60
2019-04-25T09:13:51.046Z,1.62
2019-04-25T09:16:23.984Z,1.42
2019-04-25T09:18:56.019Z,1.80
2019-04-25T09:21:28.022Z,1.52
2019-04-25T09:23:59.875Z,1.27
2019-04-25T09:26:31.947Z,1.90
2019-04-25T09:29:16.319Z,1.55
2019-04-25T09:31:39.301Z,1.62
2019-04-25T09:34:11.535Z,1.50
2019-04-25T09:36:43.995Z,1.30
2019-04-25T09:39:39.118Z,1.42
2019-04-25T09:42:12.184Z,1.95
2019-04-25T09:45:13.339Z,1.62
2019-04-25T09:47:47.605Z,1.37
2019-04-25T09:50:41.810Z,1.30
2019-04-25T09:53:21.805Z,1.65
2019-04-25T09:56:04.198Z,1.30
2019-04-25T09:58:51.897Z,1.20
2019-04-25T10:01:24.990Z,1.50
2019-04-25T10:03:57.139Z,1.85
2019-04-25T10:06:29.293Z,1.27
2019-04-25T10:09:01.289Z,1.80
2019-04-25T10:11:38.199Z,1.50
2019-04-25T10:15:06.211Z,1.40
2019-04-25T10:17:39.263Z,1.50
2019-04-25T10:20:14.467Z,1.10
2019-04-25T10:22:46.563Z,1.15
2019-04-25T10:25:19.563Z,1.30
2019-04-25T10:27:52.301Z,1.35
2019-04-25T10:30:26.091Z,1.50
2019-04-25T10:32:58.207Z,1.35
2019-04-25T10:35:30.371Z,1.27
2019-04-25T10:38:03.540Z,1.50
2019-04-25T10:40:35.715Z,1.60
2019-04-25T10:43:08.095Z,2.05
2019-04-25T10:45:40.678Z,1.30
2019-04-25T10:48:14.200Z,1.80
2019-04-25T10:50:47.431Z,1.40
2019-04-25T10:53:20.540Z,1.20
2019-04-25T10:55:53.076Z,1.70
2019-04-25T10:58:25.156Z,1.30
2019-04-25T11:00:57.538Z,1.25
2019-04-25T11:03:54.068Z,1.30
2019-04-25T11:06:28.713Z,1.50
2019-04-25T11:09:00.997Z,1.52
2019-04-25T11:11:36.525Z,1.45
2019-04-25T11:14:08.711Z,1.47
2019-04-25T11:16:40.948Z,1.75
2019-04-25T11:19:13.602Z,1.52
2019-04-25T11:21:47.742Z,1.98
2019-04-25T11:24:19.878Z,1.47
2019-04-25T11:26:51.947Z,1.40
2019-04-25T11:29:24.196Z,1.40
2019-04-25T11:31:56.720Z,1.65
2019-04-25T11:34:29.122Z,1.27
2019-04-25T11:37:03.716Z,1.60
2019-04-25T11:39:56.112Z,1.50
2019-04-25T11:42:28.840Z,1.30
2019-04-25T11:45:06.032Z,1.40
2019-04-25T11:47:41.659Z,1.30
2019-04-25T11:50:15.777Z,1.30
2019-04-25T11:52:48.238Z,1.30
2019-04-25T11:55:20.762Z,1.82
2019-04-25T11:57:54.583Z,1.40
2019-04-25T12:00:28.780Z,1.52
2019-04-25T12:03:01.189Z,1.95
2019-04-25T12:05:45.442Z,1.30
2019-04-25T12:08:19.986Z,1.10
2019-04-25T12:10:53.896Z,1.70
2019-04-25T12:13:26.000Z,1.40
2019-04-25T12:15:58.545Z,1.20
2019-04-25T12:18:33.297Z,1.10
2019-04-25T12:21:04.865Z,1.65
2019-04-25T12:23:37.159Z,1.00
2019-04-25T12:26:09.466Z,1.22
2019-04-25T12:28:42.193Z,1.17
2019-04-25T12:31:14.885Z,1.50
2019-04-25T12:33:48.670Z,1.12
2019-04-25T12:36:20.801Z,1.25
2019-04-25T12:38:54.543Z,1.32
2019-04-25T12:41:26.730Z,1.00
2019-04-25T12:44:18.297Z,1.25
2019-04-25T12:46:52.444Z,1.25
2019-04-25T12:49:25.327Z,1.20
2019-04-25T12:51:57.463Z,1.00
2019-04-25T12:54:29.485Z,1.55
2019-04-25T12:57:01.584Z,1.55
2019-04-25T12:59:33.924Z,1.50
2019-04-25T13:02:06.060Z,1.10
2019-04-25T13:04:38.668Z,1.27
2019-04-25T13:07:10.961Z,1.15
2019-04-25T13:09:42.936Z,1.20
2019-04-25T13:12:15.934Z,1.32
2019-04-25T13:14:47.755Z,1.10
2019-04-25T13:17:19.979Z,1.20
2019-04-25T13:19:52.195Z,1.30
2019-04-25T13:22:25.717Z,1.42
2019-04-25T13:24:57.785Z,1.30
2019-04-25T13:27:44.865Z,1.30
2019-04-25T13:30:33.824Z,1.40
2019-04-25T13:33:19.808Z,1.25
2019-04-25T13:35:58.567Z,1.07
2019-04-25T13:38:30.664Z,2.15
2019-04-25T13:41:02.768Z,1.75
2019-04-25T13:43:35.226Z,1.20
2019-04-25T13:46:07.411Z,1.32
2019-04-25T13:48:41.027Z,1.40
2019-04-25T13:51:14.179Z,1.10
2019-04-25T13:53:46.318Z,1.40
2019-04-25T13:56:18.484Z,1.17
2019-04-25T13:58:50.859Z,1.00
2019-04-25T14:01:25.883Z,1.30
2019-04-25T14:03:58.313Z,1.20
2019-04-25T14:06:30.436Z,1.20
2019-04-25T14:09:03.247Z,1.10
2019-04-25T14:11:36.826Z,1.42
2019-04-25T14:14:09.604Z,1.30
2019-04-25T14:16:54.520Z,1.50
2019-04-25T14:19:55.020Z,1.55
2019-04-25T14:22:27.572Z,1.00
2019-04-25T14:24:59.742Z,1.20
2019-04-25T14:27:32.522Z,1.07
2019-04-25T14:30:07.899Z,1.05
2019-04-25T14:32:40.006Z,1.20
2019-04-25T14:35:14.387Z,1.00
2019-04-25T14:37:47.726Z,1.17
2019-04-25T14:40:20.032Z,1.27
2019-04-25T14:42:52.365Z,1.37
2019-04-25T14:45:24.496Z,1.60
2019-04-25T14:47:56.385Z,1.00
2019-04-25T14:50:29.991Z,1.10
2019-04-25T14:53:02.149Z,1.57
2019-04-25T14:55:59.943Z,3.77
2019-04-25T14:58:33.703Z,3.98
2019-04-25T15:01:06.069Z,1.35
2019-04-25T15:03:38.242Z,2.00
2019-04-25T15:06:10.399Z,1.95
2019-04-25T15:08:42.498Z,4.60
2019-04-25T15:11:14.571Z,1.60
2019-04-25T15:13:47.140Z,2.05
2019-04-25T15:16:19.388Z,1.90
2019-04-25T15:18:51.376Z,1.17
2019-04-25T15:21:23.348Z,1.40
2019-04-25T15:24:00.310Z,1.30
2019-04-25T15:26:29.071Z,1.50
2019-04-25T15:29:02.038Z,1.25
2019-04-25T15:31:34.096Z,1.30
2019-04-25T15:34:06.505Z,1.25
2019-04-25T15:37:00.534Z,1.80
2019-04-25T15:39:58.397Z,1.22
2019-04-25T15:42:55.328Z,1.82
2019-04-25T15:45:36.469Z,1.70
2019-04-25T15:48:08.784Z,1.47
2019-04-25T15:50:41.722Z,1.67
2019-04-25T15:53:13.807Z,1.60
2019-04-25T15:55:45.802Z,1.75
2019-04-25T15:58:18.114Z,1.70
2019-04-25T16:00:51.581Z,1.80
2019-04-25T16:03:23.709Z,1.40
2019-04-25T16:05:55.897Z,1.37
2019-04-25T16:08:28.812Z,1.70
2019-04-25T16:11:01.056Z,1.85
2019-04-25T16:13:33.143Z,1.50
2019-04-25T16:16:05.621Z,1.45
2019-04-25T16:18:37.917Z,1.87
2019-04-25T16:21:10.529Z,2.08
2019-04-25T16:23:42.782Z,2.42
2019-04-25T16:26:15.123Z,1.90
2019-04-25T16:28:47.173Z,1.60
2019-04-25T16:31:21.728Z,1.80
2019-04-25T16:33:53.870Z,1.45
2019-04-25T16:36:26.135Z,1.98
2019-04-25T16:38:58.038Z,1.80
2019-04-25T16:41:30.109Z,1.85
2019-04-25T16:44:06.592Z,2.05
2019-04-25T16:46:39.912Z,2.27
2019-04-25T16:49:11.909Z,1.90
2019-04-25T16:51:46.857Z,1.92
2019-04-25T16:54:18.906Z,1.65
2019-04-25T16:56:50.897Z,2.12
2019-04-25T16:59:22.884Z,2.37
2019-04-25T17:01:55.509Z,1.60
2019-04-25T17:04:27.637Z,1.40
2019-04-25T17:06:59.717Z,1.40
2019-04-25T17:09:31.894Z,1.57
2019-04-25T17:12:05.727Z,1.60
2019-04-25T17:14:55.036Z,1.75
2019-04-25T17:17:38.507Z,2.00
2019-04-25T17:20:22.323Z,2.00
2019-04-25T17:22:54.883Z,2.87
2019-04-25T17:25:26.918Z,3.27
2019-04-25T17:27:59.396Z,3.15
2019-04-25T17:30:33.201Z,1.80
2019-04-25T17:33:27.131Z,2.20
2019-04-25T17:36:07.200Z,1.80
2019-04-25T17:38:42.456Z,1.82
2019-04-25T17:41:14.514Z,2.00
2019-04-25T17:43:46.478Z,2.10
2019-04-25T17:46:21.083Z,2.58
2019-04-25T17:48:53.392Z,2.50
2019-04-25T17:51:25.360Z,2.47
2019-04-25T17:53:57.193Z,1.98
2019-04-25T17:56:29.116Z,2.50
2019-04-25T17:59:01.247Z,3.40
2019-04-25T18:01:34.056Z,2.92
2019-04-25T18:04:07.310Z,3.65
2019-04-25T18:06:40.009Z,3.58
2019-04-25T18:09:12.303Z,2.80
2019-04-25T18:11:45.555Z,3.33
2019-04-25T18:14:17.588Z,2.62
2019-04-25T18:16:50.090Z,2.50
2019-04-25T18:19:38.603Z,2.37
2019-04-25T18:22:29.530Z,2.00
2019-04-25T18:25:26.164Z,2.20
2019-04-25T18:28:09.041Z,1.70
2019-04-25T18:30:41.415Z,1.80
2019-04-25T18:33:28.466Z,1.75
2019-04-25T18:36:09.323Z,1.80
2019-04-25T18:39:15.222Z,1.60
2019-04-25T18:41:55.554Z,2.00
2019-04-25T18:44:27.637Z,1.57
2019-04-25T18:47:00.694Z,1.57
2019-04-25T18:49:32.795Z,1.50
2019-04-25T18:52:08.545Z,1.60
2019-04-25T18:54:57.167Z,1.37
2019-04-25T18:57:48.160Z,2.10
2019-04-25T19:00:37.691Z,1.80
2019-04-25T19:03:34.002Z,2.08
2019-04-25T19:06:09.330Z,1.85
2019-04-25T19:08:41.303Z,1.90
2019-04-25T19:11:13.387Z,1.95
2019-04-25T19:13:45.368Z,1.72
2019-04-25T19:16:17.439Z,1.60
2019-04-25T19:18:49.382Z,1.70
2019-04-25T19:21:21.510Z,1.98
2019-04-25T19:23:53.500Z,1.77
2019-04-25T19:26:25.519Z,1.90
2019-04-25T19:28:57.453Z,1.70
2019-04-25T19:31:29.701Z,1.67
2019-04-25T19:34:01.840Z,1.50
2019-04-25T19:36:33.922Z,1.65
2019-04-25T19:39:07.452Z,1.57
2019-04-25T19:41:45.879Z,1.87
2019-04-25T19:44:21.733Z,1.50
2019-04-25T19:46:53.872Z,1.40
2019-04-25T19:49:26.157Z,1.47
2019-04-25T19:51:58.267Z,1.60
2019-04-25T19:54:30.489Z,2.60
2019-04-25T19:57:02.534Z,1.50
2019-04-25T19:59:34.567Z,1.65
2019-04-25T20:02:11.994Z,1.40
2019-04-25T20:05:02.250Z,1.40
2019-04-25T20:07:43.771Z,2.42
2019-04-25T20:10:39.784Z,1.35
2019-04-25T20:13:13.029Z,1.25
2019-04-25T20:15:45.527Z,1.20
2019-04-25T20:18:17.545Z,1.02
2019-04-25T20:20:50.043Z,1.20
2019-04-25T20:23:22.025Z,1.27
2019-04-25T20:25:57.067Z,1.30
2019-04-25T20:28:28.090Z,1.40
2019-04-25T20:31:00.154Z,1.40
2019-04-25T20:33:34.185Z,1.45
2019-04-25T20:36:17.252Z,1.40
2019-04-25T20:38:40.274Z,1.30
2019-04-25T20:41:12.545Z,2.00
2019-04-25T20:43:44.595Z,1.35
2019-04-25T20:46:16.678Z,1.40
2019-04-25T20:48:48.799Z,1.80
2019-04-25T20:51:21.081Z,1.42
2019-04-25T20:53:53.221Z,1.32
2019-04-25T20:56:25.104Z,1.42
2019-04-25T20:58:57.701Z,1.50
2019-04-25T21:01:29.776Z,1.40
2019-04-25T21:04:12.687Z,1.30
2019-04-25T21:06:37.865Z,1.50
2019-04-25T21:09:10.259Z,1.60
2019-04-25T21:11:46.311Z,1.30
2019-04-25T21:14:30.686Z,1.30
2019-04-25T21:17:06.980Z,1.40
2019-04-25T21:19:42.108Z,1.50
2019-04-25T21:22:14.240Z,1.60
2019-04-25T21:24:46.330Z,1.60
2019-04-25T21:27:19.707Z,1.60
2019-04-25T21:29:52.140Z,1.50
2019-04-25T21:32:24.804Z,1.60
2019-04-25T21:34:57.200Z,1.65
2019-04-25T21:37:29.328Z,1.47
2019-04-25T21:40:09.203Z,1.75
2019-04-25T21:42:45.821Z,1.70
2019-04-25T21:45:18.449Z,1.65
2019-04-25T21:47:50.913Z,1.80
2019-04-25T21:50:24.316Z,1.60
2019-04-25T21:52:56.921Z,1.75
2019-04-25T21:55:29.578Z,1.62
2019-04-25T21:58:02.075Z,1.50
2019-04-25T22:00:52.520Z,1.80
2019-04-25T22:03:27.072Z,1.85
2019-04-25T22:06:00.759Z,2.08
2019-04-25T22:08:33.973Z,2.00
2019-04-25T22:11:06.372Z,1.92
2019-04-25T22:13:40.001Z,2.50
2019-04-25T22:16:12.801Z,2.20
2019-04-25T22:18:45.267Z,1.92
2019-04-25T22:21:18.692Z,1.80
2019-04-25T22:24:03.112Z,1.95
2019-04-25T22:26:25.022Z,1.80
2019-04-25T22:28:57.743Z,2.25
2019-04-25T22:31:36.128Z,2.00
2019-04-25T22:34:15.705Z,1.87
2019-04-25T22:36:48.288Z,2.30
2019-04-25T22:39:20.587Z,2.05
2019-04-25T22:41:53.201Z,2.35
2019-04-25T22:44:25.452Z,2.20
2019-04-25T22:46:57.885Z,1.90
2019-04-25T22:49:30.243Z,2.05
2019-04-25T22:52:03.199Z,1.87
2019-04-25T22:54:35.449Z,1.90
2019-04-25T22:57:08.402Z,1.90
2019-04-25T22:59:41.158Z,2.00
2019-04-25T23:02:22.177Z,2.35
2019-04-25T23:05:09.476Z,2.25
2019-04-25T23:07:35.629Z,2.40
2019-04-25T23:10:08.321Z,2.20
2019-04-25T23:12:40.493Z,3.08
2019-04-25T23:15:13.119Z,2.15
2019-04-25T23:17:45.719Z,2.40
2019-04-25T23:20:18.044Z,2.25
2019-04-25T23:22:50.286Z,2.00
2019-04-25T23:25:27.714Z,2.12
2019-04-25T23:28:11.846Z,2.30
2019-04-25T23:31:01.903Z,2.20
2019-04-25T23:33:34.087Z,2.40
2019-04-25T23:36:07.044Z,2.40
2019-04-25T23:38:39.137Z,2.62
2019-04-25T23:41:11.559Z,2.42
2019-04-25T23:43:43.753Z,2.20
2019-04-25T23:46:16.295Z,2.72
2019-04-25T23:48:48.330Z,2.80
2019-04-25T23:51:20.318Z,2.17
2019-04-25T23:53:52.646Z,2.60
2019-04-25T23:56:24.827Z,1.90
2019-04-25T23:58:57.423Z,2.42
